createdAt,value
2019-04-27T00:00:46.899Z,81.90
2019-04-27T00:03:19.429Z,81.90
2019-04-27T00:05:56.123Z,81.90
2019-04-27T00:08:39.215Z,82.40
2019-04-27T00:11:13.630Z,82.40
2019-04-27T00:13:43.943Z,82.60
2019-04-27T00:16:33.745Z,82.80
2019-04-27T00:19:20.997Z,82.90
2019-04-27T00:22:08.055Z,82.80
2019-04-27T00:24:37.420Z,82.80
2019-04-27T00:27:06.774Z,82.60
2019-04-27T00:29:36.028Z,82.70
2019-04-27T00:32:05.890Z,82.90
2019-04-27T00:34:35.227Z,83.10
2019-04-27T00:37:25.451Z,83.10
2019-04-27T00:40:04.392Z,83.10
2019-04-27T00:42:35.607Z,83.40
2019-04-27T00:45:05.913Z,83.80
2019-04-27T00:47:35.262Z,84.00
2019-04-27T00:50:05.218Z,84.50
2019-04-27T00:52:34.909Z,84.50
2019-04-27T00:55:04.430Z,84.90
2019-04-27T00:57:59.014Z,84.90
2019-04-27T01:00:47.473Z,84.70
2019-04-27T01:03:23.635Z,84.80
2019-04-27T01:05:53.199Z,84.90
2019-04-27T01:08:23.013Z,85.10
2019-04-27T01:10:53.778Z,85.10
2019-04-27T01:13:23.129Z,85.20
2019-04-27T01:15:54.044Z,85.10
2019-04-27T01:18:23.339Z,85.40
2019-04-27T01:20:52.610Z,85.10
2019-04-27T01:23:21.931Z,85.50
2019-04-27T01:26:09.762Z,85.60
2019-04-27T01:28:45.534Z,85.60
2019-04-27T01:31:15.254Z,85.90
2019-04-27T01:33:44.499Z,85.90
2019-04-27T01:36:13.733Z,86.30
2019-04-27T01:38:43.045Z,86.40
2019-04-27T01:41:12.291Z,86.80
2019-04-27T01:43:41.563Z,87.10
2019-04-27T01:46:11.291Z,87.60
2019-04-27T01:48:40.604Z,87.80
2019-04-27T01:51:09.911Z,88.10
2019-04-27T01:53:39.279Z,88.40
2019-04-27T01:56:09.211Z,88.60
2019-04-27T01:58:39.348Z,88.60
2019-04-27T02:01:34.155Z,88.40
2019-04-27T02:04:19.204Z,88.70
2019-04-27T02:06:50.531Z,88.70
2019-04-27T02:09:20.945Z,89.00
2019-04-27T02:11:50.246Z,89.00
2019-04-27T02:14:19.706Z,89.20
2019-04-27T02:16:49.338Z,89.50
2019-04-27T02:19:19.415Z,89.30
2019-04-27T02:21:51.117Z,89.20
2019-04-27T02:24:19.897Z,89.20
2019-04-27T02:26:49.715Z,89.40
2019-04-27T02:29:29.205Z,89.30
2019-04-27T02:32:10.495Z,89.30
2019-04-27T02:35:00.100Z,89.20
2019-04-27T02:37:30.440Z,89.20
2019-04-27T02:40:00.425Z,88.80
2019-04-27T02:42:35.412Z,88.90
2019-04-27T02:45:05.283Z,89.00
2019-04-27T02:47:35.100Z,89.10
2019-04-27T02:50:04.436Z,89.10
2019-04-27T02:52:40.444Z,89.20
2019-04-27T02:55:09.816Z,89.40
2019-04-27T02:57:39.923Z,89.50
2019-04-27T03:00:10.609Z,89.50
2019-04-27T03:02:54.323Z,89.60
2019-04-27T03:05:26.781Z,89.60
2019-04-27T03:07:59.685Z,89.50
2019-04-27T03:10:31.304Z,89.70
2019-04-27T03:13:20.175Z,89.80
2019-04-27T03:16:23.791Z,89.90
2019-04-27T03:19:18.174Z,89.90
2019-04-27T03:22:02.448Z,90.20
2019-04-27T03:24:49.902Z,90.20
2019-04-27T03:27:21.356Z,90.40
2019-04-27T03:29:50.707Z,90.50
2019-04-27T03:32:22.665Z,90.70
2019-04-27T03:34:52.480Z,90.80
2019-04-27T03:37:21.865Z,90.80
2019-04-27T03:39:51.156Z,90.90
2019-04-27T03:42:20.902Z,91.10
2019-04-27T03:44:50.591Z,91.20
2019-04-27T03:47:20.093Z,91.40
2019-04-27T03:49:50.637Z,91.50
2019-04-27T03:52:32.402Z,91.70
2019-04-27T03:55:26.941Z,91.70
2019-04-27T03:58:02.087Z,92.00
2019-04-27T04:00:31.442Z,92.10
2019-04-27T04:03:00.793Z,92.20
2019-04-27T04:05:30.241Z,92.20
2019-04-27T04:08:00.452Z,92.40
2019-04-27T04:10:31.720Z,92.50
2019-04-27T04:13:06.492Z,92.60
2019-04-27T04:15:42.577Z,92.80
2019-04-27T04:18:11.914Z,92.90
2019-04-27T04:20:41.138Z,93.10
2019-04-27T04:23:10.815Z,93.20
2019-04-27T04:25:40.992Z,93.30
2019-04-27T04:28:10.538Z,93.50
2019-04-27T04:30:40.397Z,93.70
2019-04-27T04:33:10.457Z,94.00
2019-04-27T04:35:40.152Z,94.10
2019-04-27T04:38:10.344Z,94.20
2019-04-27T04:40:45.755Z,94.30
2019-04-27T04:43:39.778Z,94.40
2019-04-27T04:46:40.261Z,94.40
2019-04-27T04:49:09.640Z,95.00
2019-04-27T04:51:40.202Z,94.80
2019-04-27T04:54:09.647Z,94.80
2019-04-27T04:56:39.353Z,95.00
2019-04-27T04:59:10.117Z,95.20
2019-04-27T05:01:40.001Z,95.30
2019-04-27T05:04:09.412Z,95.40
2019-04-27T05:06:39.045Z,95.50
2019-04-27T05:09:09.298Z,95.60
2019-04-27T05:11:39.611Z,95.60
2019-04-27T05:14:09.829Z,95.70
2019-04-27T05:16:39.201Z,95.60
2019-04-27T05:19:11.032Z,95.70
2019-04-27T05:21:39.310Z,95.70
2019-04-27T05:24:09.364Z,95.70
2019-04-27T05:26:39.702Z,95.70
2019-04-27T05:29:09.304Z,95.80
2019-04-27T05:31:38.948Z,96.00
2019-04-27T05:34:09.527Z,95.80
2019-04-27T05:36:41.825Z,95.80
2019-04-27T05:39:13.067Z,95.80
2019-04-27T05:41:41.743Z,95.90
2019-04-27T05:44:33.079Z,96.10
2019-04-27T05:47:18.945Z,95.90
2019-04-27T05:49:52.080Z,95.70
2019-04-27T05:52:29.494Z,95.70
2019-04-27T05:54:59.367Z,95.90
2019-04-27T05:57:31.471Z,95.80
2019-04-27T06:00:02.212Z,96.00
2019-04-27T06:02:31.530Z,95.90
2019-04-27T06:05:00.849Z,95.90
2019-04-27T06:07:30.202Z,95.90
2019-04-27T06:10:00.025Z,96.10
2019-04-27T06:12:29.925Z,96.30
2019-04-27T06:15:00.167Z,96.20
2019-04-27T06:17:30.184Z,96.40
2019-04-27T06:19:59.967Z,96.20
2019-04-27T06:22:30.371Z,96.10
2019-04-27T06:25:00.382Z,96.60
2019-04-27T06:27:30.607Z,96.20
2019-04-27T06:30:00.754Z,96.10
2019-04-27T06:32:30.638Z,96.10
2019-04-27T06:35:00.119Z,96.00
2019-04-27T06:37:31.211Z,96.10
2019-04-27T06:40:00.998Z,96.00
2019-04-27T06:42:31.294Z,96.10
2019-04-27T06:45:01.907Z,95.80
2019-04-27T06:47:31.338Z,95.80
2019-04-27T06:50:00.825Z,96.00
2019-04-27T06:52:30.278Z,95.80
2019-04-27T06:55:00.658Z,95.60
2019-04-27T06:57:30.218Z,95.40
2019-04-27T06:59:59.655Z,95.50
2019-04-27T07:02:29.257Z,95.80
2019-04-27T07:05:02.963Z,95.50
2019-04-27T07:07:32.497Z,95.80
2019-04-27T07:10:01.969Z,95.90
2019-04-27T07:12:31.443Z,96.10
2019-04-27T07:15:00.999Z,96.20
2019-04-27T07:17:30.710Z,96.20
2019-04-27T07:20:00.200Z,96.00
2019-04-27T07:22:30.098Z,96.30
2019-04-27T07:24:59.542Z,96.30
2019-04-27T07:27:31.314Z,96.30
2019-04-27T07:30:01.832Z,96.30
2019-04-27T07:32:31.485Z,96.20
2019-04-27T07:35:00.943Z,96.10
2019-04-27T07:37:30.424Z,96.30
2019-04-27T07:40:00.277Z,96.40
2019-04-27T07:42:32.203Z,96.70
2019-04-27T07:45:09.374Z,96.60
2019-04-27T07:47:42.439Z,96.30
2019-04-27T07:50:11.844Z,96.70
2019-04-27T07:52:41.597Z,96.80
2019-04-27T07:55:12.241Z,97.10
2019-04-27T07:57:42.497Z,97.10
2019-04-27T08:00:14.516Z,97.00
2019-04-27T08:02:48.645Z,96.90
2019-04-27T08:05:24.876Z,97.10
2019-04-27T08:07:56.280Z,97.20
2019-04-27T08:10:29.203Z,97.30
2019-04-27T08:13:02.077Z,97.30
2019-04-27T08:15:32.286Z,97.50
2019-04-27T08:18:04.438Z,97.50
2019-04-27T08:20:34.990Z,97.40
2019-04-27T08:23:05.848Z,97.20
2019-04-27T08:25:36.035Z,97.20
2019-04-27T08:28:30.455Z,97.10
2019-04-27T08:31:08.963Z,97.00
2019-04-27T08:33:38.947Z,97.00
2019-04-27T08:36:14.901Z,97.40
2019-04-27T08:38:44.391Z,97.30
2019-04-27T08:41:14.734Z,97.20
2019-04-27T08:43:45.181Z,97.20
2019-04-27T08:46:14.718Z,97.10
2019-04-27T08:48:45.759Z,96.80
2019-04-27T08:51:16.461Z,96.80
2019-04-27T08:53:47.143Z,97.10
2019-04-27T08:56:19.371Z,97.00
2019-04-27T08:58:51.070Z,96.90
2019-04-27T09:01:21.299Z,96.70
2019-04-27T09:03:52.065Z,96.60
2019-04-27T09:06:22.508Z,96.50
2019-04-27T09:08:59.287Z,96.50
2019-04-27T09:11:53.511Z,96.60
2019-04-27T09:14:31.170Z,96.40
2019-04-27T09:17:19.732Z,96.50
2019-04-27T09:20:13.223Z,96.50
2019-04-27T09:22:43.278Z,96.50
2019-04-27T09:25:13.022Z,96.20
2019-04-27T09:27:42.993Z,96.30
2019-04-27T09:30:13.352Z,96.30
2019-04-27T09:32:43.840Z,96.10
2019-04-27T09:35:15.835Z,96.00
2019-04-27T09:37:48.561Z,95.90
2019-04-27T09:40:20.013Z,96.30
2019-04-27T09:42:50.676Z,96.20
2019-04-27T09:45:21.598Z,96.00
2019-04-27T09:47:51.503Z,96.10
2019-04-27T09:50:23.169Z,96.10
2019-04-27T09:52:53.085Z,96.30
2019-04-27T09:55:22.934Z,96.30
2019-04-27T09:57:52.784Z,96.20
2019-04-27T10:00:24.962Z,96.00
2019-04-27T10:02:56.442Z,95.90
2019-04-27T10:05:26.762Z,95.50
2019-04-27T10:07:58.893Z,95.40
2019-04-27T10:10:29.792Z,95.20
2019-04-27T10:12:59.539Z,95.40
2019-04-27T10:15:30.684Z,95.50
2019-04-27T10:18:06.947Z,95.80
2019-04-27T10:20:41.210Z,95.60
2019-04-27T10:23:12.344Z,95.80
2019-04-27T10:25:47.951Z,95.80
2019-04-27T10:28:21.542Z,95.90
2019-04-27T10:30:52.059Z,96.20
2019-04-27T10:33:25.848Z,95.90
2019-04-27T10:35:56.613Z,96.10
2019-04-27T10:38:30.041Z,96.00
2019-04-27T10:41:07.798Z,96.20
2019-04-27T10:43:40.282Z,96.30
2019-04-27T10:50:01.618Z,96.00
2019-04-27T10:52:35.080Z,96.10
2019-04-27T10:55:06.486Z,96.30
2019-04-27T10:58:03.658Z,96.20
2019-04-27T11:00:40.110Z,96.20
2019-04-27T11:03:11.276Z,96.50
2019-04-27T11:06:03.191Z,96.50
2019-04-27T11:08:33.046Z,96.70
2019-04-27T11:11:03.014Z,96.50
2019-04-27T11:13:38.236Z,96.60
2019-04-27T11:16:13.851Z,96.80
2019-04-27T11:18:43.756Z,96.80
2019-04-27T11:21:28.771Z,96.90
2019-04-27T11:23:58.703Z,96.90
2019-04-27T11:26:27.973Z,97.30
2019-04-27T11:28:57.403Z,97.00
2019-04-27T11:31:26.864Z,97.10
2019-04-27T11:33:56.893Z,97.00
2019-04-27T11:36:37.929Z,97.20
2019-04-27T11:39:13.420Z,97.40
2019-04-27T11:41:42.675Z,97.40
2019-04-27T11:44:12.079Z,97.10
2019-04-27T11:46:41.778Z,97.30
2019-04-27T11:49:11.149Z,97.70
2019-04-27T11:51:40.491Z,97.80
2019-04-27T11:54:12.077Z,97.80
2019-04-27T11:56:41.385Z,98.10
2019-04-27T11:59:10.643Z,98.20
2019-04-27T12:01:39.974Z,98.20
2019-04-27T12:04:09.369Z,98.30
2019-04-27T12:06:38.732Z,98.50
2019-04-27T12:09:09.435Z,98.30
2019-04-27T12:11:39.349Z,98.40
2019-04-27T12:14:08.722Z,98.50
2019-04-27T12:16:39.704Z,98.60
2019-04-27T12:19:09.305Z,98.50
2019-04-27T12:21:39.118Z,98.50
2019-04-27T12:24:08.858Z,98.60
2019-04-27T12:26:48.474Z,98.30
2019-04-27T12:29:21.102Z,98.30
2019-04-27T12:31:52.035Z,98.00
2019-04-27T12:34:22.715Z,98.00
2019-04-27T12:36:53.539Z,97.70
2019-04-27T12:39:23.053Z,97.60
2019-04-27T12:41:52.448Z,97.60
2019-04-27T12:44:21.790Z,97.70
2019-04-27T12:46:51.711Z,97.50
2019-04-27T12:49:21.060Z,97.40
2019-04-27T12:51:50.447Z,97.50
2019-04-27T12:54:31.598Z,97.70
2019-04-27T12:57:31.373Z,97.60
2019-04-27T13:00:06.540Z,97.60
2019-04-27T13:02:35.969Z,97.80
2019-04-27T13:05:05.788Z,97.80
2019-04-27T13:07:35.159Z,98.00
2019-04-27T13:10:05.699Z,98.10
2019-04-27T13:12:36.719Z,98.10
2019-04-27T13:15:09.934Z,98.00
2019-04-27T13:17:39.290Z,98.40
2019-04-27T13:20:08.873Z,98.30
2019-04-27T13:22:38.259Z,98.10
2019-04-27T13:25:08.011Z,98.20
2019-04-27T13:27:37.445Z,98.30
2019-04-27T13:30:08.553Z,98.30
2019-04-27T13:32:37.926Z,98.20
2019-04-27T13:35:07.670Z,98.00
2019-04-27T13:37:41.724Z,97.90
2019-04-27T13:40:13.191Z,98.10
2019-04-27T13:42:53.564Z,98.20
2019-04-27T13:45:31.478Z,98.40
2019-04-27T13:48:31.971Z,98.60
2019-04-27T13:51:02.929Z,98.60
2019-04-27T13:53:32.237Z,98.40
2019-04-27T13:56:03.239Z,98.20
2019-04-27T13:58:32.503Z,98.00
2019-04-27T14:01:01.852Z,98.10
2019-04-27T14:03:31.201Z,98.10
2019-04-27T14:06:01.158Z,98.00
2019-04-27T14:08:30.890Z,97.90
2019-04-27T14:11:01.250Z,98.20
2019-04-27T14:13:30.825Z,98.30
2019-04-27T14:16:00.077Z,98.20
2019-04-27T14:18:29.423Z,98.00
2019-04-27T14:20:59.247Z,98.00
2019-04-27T14:23:30.675Z,98.00
2019-04-27T14:26:00.416Z,97.80
2019-04-27T14:28:29.954Z,97.80
2019-04-27T14:30:59.312Z,97.70
2019-04-27T14:33:28.581Z,97.90
2019-04-27T14:35:59.417Z,98.20
2019-04-27T14:38:28.816Z,97.80
2019-04-27T14:40:59.368Z,97.90
2019-04-27T14:43:28.714Z,98.00
2019-04-27T14:45:58.394Z,98.00
2019-04-27T14:48:29.315Z,98.10
2019-04-27T14:50:59.090Z,98.30
2019-04-27T14:53:29.161Z,98.40
2019-04-27T14:55:58.577Z,98.30
2019-04-27T14:58:28.317Z,98.30
2019-04-27T15:00:58.497Z,98.20
2019-04-27T15:03:28.102Z,98.10
2019-04-27T15:05:57.607Z,98.10
2019-04-27T15:08:26.863Z,98.30
2019-04-27T15:10:56.346Z,98.10
2019-04-27T15:13:25.687Z,98.00
2019-04-27T15:15:55.033Z,98.00
2019-04-27T15:18:29.584Z,98.10
2019-04-27T15:20:58.498Z,98.00
2019-04-27T15:23:30.853Z,98.00
2019-04-27T15:26:00.402Z,97.80
2019-04-27T15:28:35.342Z,98.10
2019-04-27T15:31:29.390Z,97.90
2019-04-27T15:34:17.063Z,97.80
2019-04-27T15:37:12.552Z,97.90
2019-04-27T15:40:12.623Z,97.90
2019-04-27T15:42:53.259Z,97.80
2019-04-27T15:45:25.319Z,98.20
2019-04-27T15:47:59.956Z,98.30
2019-04-27T15:50:32.180Z,98.30
2019-04-27T15:53:02.884Z,98.50
2019-04-27T15:55:35.105Z,98.70
2019-04-27T15:58:02.375Z,98.80
2019-04-27T16:00:31.963Z,98.70
2019-04-27T16:03:01.581Z,98.80
2019-04-27T16:05:33.354Z,98.90
2019-04-27T16:08:06.246Z,98.80
2019-04-27T16:10:37.301Z,98.70
2019-04-27T16:13:06.869Z,99.00
2019-04-27T16:15:35.592Z,99.10
2019-04-27T16:18:05.003Z,99.30
2019-04-27T16:20:34.413Z,99.10
2019-04-27T16:23:04.406Z,99.30
2019-04-27T16:25:46.120Z,99.30
2019-04-27T16:28:09.686Z,99.60
2019-04-27T16:30:35.847Z,99.70
2019-04-27T16:33:05.550Z,99.90
2019-04-27T16:35:34.897Z,99.90
2019-04-27T16:38:15.468Z,99.90
2019-04-27T16:40:44.799Z,99.90
2019-04-27T16:43:14.110Z,99.90
2019-04-27T16:45:43.486Z,99.90
2019-04-27T16:48:12.818Z,99.90
2019-04-27T16:50:42.130Z,99.90
2019-04-27T16:53:12.604Z,99.90
2019-04-27T16:55:42.023Z,99.90
2019-04-27T16:58:16.035Z,99.90
2019-04-27T17:00:42.839Z,99.90
2019-04-27T17:03:12.137Z,99.90
2019-04-27T17:05:41.323Z,99.90
2019-04-27T17:08:13.929Z,99.90
2019-04-27T17:10:41.737Z,99.90
2019-04-27T17:13:14.560Z,99.90
2019-04-27T17:16:01.324Z,99.90
2019-04-27T17:19:02.331Z,99.90
2019-04-27T17:21:28.482Z,99.90
2019-04-27T17:24:02.760Z,99.90
2019-04-27T17:26:29.261Z,99.90
2019-04-27T17:29:10.959Z,99.90
2019-04-27T17:31:41.700Z,99.90
2019-04-27T17:34:10.992Z,99.90
2019-04-27T17:36:40.376Z,99.90
2019-04-27T17:39:11.616Z,99.90
2019-04-27T17:41:42.097Z,99.90
2019-04-27T17:44:12.673Z,99.90
2019-04-27T17:46:47.055Z,99.90
2019-04-27T17:49:13.748Z,99.90
2019-04-27T17:51:44.339Z,99.90
2019-04-27T17:54:13.762Z,99.90
2019-04-27T17:56:48.811Z,99.90
2019-04-27T17:59:17.317Z,99.90
2019-04-27T18:01:45.046Z,99.90
2019-04-27T18:04:14.416Z,99.90
2019-04-27T18:06:43.911Z,99.90
2019-04-27T18:09:18.786Z,99.90
2019-04-27T18:11:50.331Z,99.90
2019-04-27T18:14:19.432Z,99.90
2019-04-27T18:16:48.784Z,99.90
2019-04-27T18:19:23.501Z,99.90
2019-04-27T18:22:00.859Z,99.90
2019-04-27T18:24:34.994Z,99.90
2019-04-27T18:27:12.676Z,99.90
2019-04-27T18:29:42.549Z,99.90
2019-04-27T18:32:11.869Z,99.90
2019-04-27T18:34:41.188Z,99.90
2019-04-27T18:37:10.689Z,99.90
2019-04-27T18:39:45.338Z,99.90
2019-04-27T18:42:13.683Z,99.90
2019-04-27T18:44:43.020Z,99.90
2019-04-27T18:47:12.336Z,99.90
2019-04-27T18:50:10.882Z,99.90
2019-04-27T18:52:47.546Z,99.90
2019-04-27T18:55:16.603Z,99.90
2019-04-27T18:57:45.885Z,99.90
2019-04-27T19:00:18.269Z,99.90
2019-04-27T19:02:48.250Z,99.90
2019-04-27T19:05:18.822Z,99.90
2019-04-27T19:07:48.555Z,99.90
2019-04-27T19:10:19.226Z,99.90
2019-04-27T19:12:48.655Z,99.90
2019-04-27T19:15:18.427Z,99.90
2019-04-27T19:17:48.959Z,99.90
2019-04-27T19:20:18.796Z,99.90
2019-04-27T19:22:49.069Z,99.90
2019-04-27T19:25:28.803Z,99.90
2019-04-27T19:28:20.157Z,99.90
2019-04-27T19:30:53.802Z,99.90
2019-04-27T19:33:23.071Z,99.90
2019-04-27T19:35:52.313Z,99.90
2019-04-27T19:38:21.970Z,99.90
2019-04-27T19:40:51.231Z,99.90
2019-04-27T19:43:20.553Z,99.90
2019-04-27T19:45:49.931Z,99.90
2019-04-27T19:48:19.170Z,99.90
2019-04-27T19:50:50.424Z,99.90
2019-04-27T19:53:19.492Z,99.90
2019-04-27T19:56:03.950Z,99.90
2019-04-27T19:58:46.940Z,99.90
2019-04-27T20:01:24.198Z,99.90
2019-04-27T20:04:01.360Z,99.90
2019-04-27T20:06:30.742Z,99.90
2019-04-27T20:09:01.759Z,99.90
2019-04-27T20:11:31.489Z,99.90
2019-04-27T20:14:00.882Z,99.90
2019-04-27T20:16:31.750Z,99.90
2019-04-27T20:19:01.489Z,99.90
2019-04-27T20:21:30.992Z,99.90
2019-04-27T20:24:01.738Z,99.90
2019-04-27T20:26:31.048Z,99.90
2019-04-27T20:29:01.502Z,99.90
2019-04-27T20:31:32.554Z,99.90
2019-04-27T20:34:01.930Z,99.90
2019-04-27T20:36:32.146Z,99.90
2019-04-27T20:39:01.444Z,99.90
2019-04-27T20:41:31.908Z,99.90
2019-04-27T20:44:02.348Z,99.90
2019-04-27T20:46:31.798Z,99.90
2019-04-27T20:49:03.584Z,99.90
2019-04-27T20:51:53.093Z,99.90
2019-04-27T20:54:22.053Z,99.90
2019-04-27T20:56:53.577Z,99.90
2019-04-27T20:59:22.263Z,99.90
2019-04-27T21:01:51.963Z,99.90
2019-04-27T21:04:24.582Z,99.90
2019-04-27T21:06:58.321Z,99.90
2019-04-27T21:09:27.708Z,99.90
2019-04-27T21:11:57.010Z,99.90
2019-04-27T21:14:26.313Z,99.90
2019-04-27T21:16:55.634Z,99.90
2019-04-27T21:19:24.981Z,99.90
2019-04-27T21:21:54.336Z,99.90
2019-04-27T21:24:23.681Z,99.90
2019-04-27T21:26:52.995Z,99.90
2019-04-27T21:29:22.271Z,99.90
2019-04-27T21:31:52.053Z,99.90
2019-04-27T21:34:21.544Z,99.90
2019-04-27T21:36:51.160Z,99.90
2019-04-27T21:39:21.692Z,99.90
2019-04-27T21:41:51.742Z,99.90
2019-04-27T21:44:21.805Z,99.90
2019-04-27T21:46:51.953Z,99.90
2019-04-27T21:49:22.824Z,99.90
2019-04-27T21:52:03.615Z,99.90
2019-04-27T21:54:33.911Z,99.90
2019-04-27T21:57:03.257Z,99.90
2019-04-27T21:59:32.447Z,99.90
2019-04-27T22:02:03.379Z,99.90
2019-04-27T22:04:33.320Z,99.90
2019-04-27T22:07:02.749Z,99.90
2019-04-27T22:09:32.038Z,99.90
2019-04-27T22:12:02.515Z,99.90
2019-04-27T22:14:31.984Z,99.90
2019-04-27T22:17:01.307Z,99.90
2019-04-27T22:19:31.261Z,99.90
2019-04-27T22:22:02.313Z,99.90
2019-04-27T22:24:35.195Z,99.90
2019-04-27T22:27:04.610Z,99.90
2019-04-27T22:29:33.856Z,99.90
2019-04-27T22:32:03.287Z,99.90
2019-04-27T22:34:32.545Z,99.90
2019-04-27T22:37:02.669Z,99.90
2019-04-27T22:39:54.235Z,99.90
2019-04-27T22:42:41.635Z,99.90
2019-04-27T22:45:23.822Z,99.90
2019-04-27T22:47:53.059Z,99.90
2019-04-27T22:50:22.348Z,99.90
2019-04-27T22:52:51.606Z,99.90
2019-04-27T22:55:21.961Z,99.90
2019-04-27T22:58:01.643Z,99.90
2019-04-27T23:00:53.274Z,99.90
2019-04-27T23:03:31.268Z,99.90
2019-04-27T23:06:01.416Z,99.90
2019-04-27T23:08:31.247Z,99.90
2019-04-27T23:11:02.508Z,99.90
2019-04-27T23:13:31.697Z,99.90
2019-04-27T23:16:02.644Z,99.90
2019-04-27T23:18:31.961Z,99.90
2019-04-27T23:21:01.622Z,99.90
2019-04-27T23:23:31.104Z,99.90
2019-04-27T23:26:01.828Z,99.90
2019-04-27T23:28:31.464Z,99.90
2019-04-27T23:31:13.350Z,99.90
2019-04-27T23:33:45.944Z,99.90
2019-04-27T23:36:15.205Z,99.90
2019-04-27T23:38:44.456Z,99.90
2019-04-27T23:41:13.904Z,99.90
2019-04-27T23:43:43.165Z,99.90
2019-04-27T23:46:12.541Z,99.90
2019-04-27T23:48:42.067Z,99.90
2019-04-27T23:51:22.499Z,99.90
2019-04-27T23:53:51.777Z,99.90
2019-04-27T23:56:22.541Z,99.90
2019-04-27T23:58:51.894Z,99.90
